Time;durP1;ratioP1;P1;durP2;ratioP2;P2;SDS_P1;SDS_P2;PMS_P1;PMS_P2;Temp;Humidity;BMP_temperature;BMP_pressure;BME280_temperature;BME280_humidity;BME280_pressure;Samples;Min_cycle;Max_cycle;Signal;HPM_P1;HPM_P2
2023/08/06 00:01:55;;;;;;;1.10;1.10;;;21.10;77.60;;;;;;5083933;27;44060;-74
2023/08/06 00:04:23;;;;;;;1.10;1.10;;;21.20;77.20;;;;;;5079544;28;43469;-74
2023/08/06 00:06:51;;;;;;;0.97;0.97;;;21.30;76.70;;;;;;5085549;27;43708;-74
2023/08/06 00:09:19;;;;;;;0.90;0.90;;;21.50;76.40;;;;;;5085703;28;43832;-73
2023/08/06 00:11:48;;;;;;;1.10;1.10;;;21.50;76.20;;;;;;5076097;28;44443;-74
2023/08/06 00:14:17;;;;;;;1.00;1.00;;;21.40;76.80;;;;;;5084299;27;43436;-74
2023/08/06 00:16:45;;;;;;;1.00;1.00;;;21.40;76.20;;;;;;5078663;28;46518;-73
2023/08/06 00:19:13;;;;;;;1.10;1.10;;;21.30;76.60;;;;;;5081519;28;45023;-73
2023/08/06 00:21:42;;;;;;;1.00;1.00;;;21.20;76.90;;;;;;5079025;27;43451;-74
2023/08/06 00:24:10;;;;;;;0.80;0.80;;;21.20;76.90;;;;;;5080758;28;43478;-74
2023/08/06 00:26:38;;;;;;;0.97;0.97;;;21.20;76.90;;;;;;5081407;27;44154;-73
2023/08/06 00:29:07;;;;;;;1.00;1.00;;;21.20;77.00;;;;;;5080891;28;43388;-73
2023/08/06 00:31:35;;;;;;;1.10;1.10;;;21.10;77.40;;;;;;5075620;28;43475;-73
2023/08/06 00:34:06;;;;;;;0.90;0.90;;;21.10;77.50;;;;;;5075396;28;43549;-73
2023/08/06 00:36:34;;;;;;;0.90;0.90;;;21.20;77.30;;;;;;5080821;28;43771;-74
2023/08/06 00:39:02;;;;;;;1.07;1.07;;;21.30;76.90;;;;;;5082834;27;43376;-73
2023/08/06 00:41:30;;;;;;;1.00;1.00;;;21.30;76.70;;;;;;5079213;28;43284;-73
2023/08/06 00:43:58;;;;;;;0.90;0.90;;;21.30;76.60;;;;;;5082280;27;43377;-73
2023/08/06 00:46:28;;;;;;;1.10;1.10;;;21.30;76.90;;;;;;5078611;28;45720;-73
2023/08/06 00:48:56;;;;;;;1.00;1.00;;;21.20;76.90;;;;;;5085472;27;43382;-73
2023/08/06 00:51:24;;;;;;;0.80;0.80;;;21.20;76.80;;;;;;5084378;28;43421;-72
2023/08/06 00:53:55;;;;;;;0.80;0.80;;;21.20;76.80;;;;;;5079130;28;43399;-73
2023/08/06 00:56:23;;;;;;;0.90;0.90;;;21.20;77.00;;;;;;5076207;28;45718;-72
2023/08/06 00:58:51;;;;;;;0.93;0.93;;;21.10;77.40;;;;;;5080582;28;44716;-72
2023/08/06 01:01:19;;;;;;;1.00;1.00;;;21.10;77.40;;;;;;5084157;27;43413;-73
2023/08/06 01:03:49;;;;;;;0.90;0.90;;;21.10;77.30;;;;;;5083474;27;43494;-73
2023/08/06 01:06:17;;;;;;;1.00;1.00;;;21.10;77.30;;;;;;5082961;28;45578;-71
2023/08/06 01:08:59;;;;;;;1.10;1.10;;;21.10;77.40;;;;;;5072669;28;45116;-72
2023/08/06 01:11:30;;;;;;;1.00;1.00;;;21.00;77.70;;;;;;5086161;28;43396;-73
2023/08/06 01:14:00;;;;;;;1.00;1.00;;;21.00;77.80;;;;;;5075373;28;43764;-73
2023/08/06 01:16:28;;;;;;;0.90;0.90;;;21.10;77.40;;;;;;5078102;27;43749;-73
2023/08/06 01:18:59;;;;;;;0.80;0.80;;;21.20;76.90;;;;;;5081884;27;43371;-72
2023/08/06 01:21:28;;;;;;;0.87;0.87;;;21.40;76.40;;;;;;5078704;27;43470;-72
2023/08/06 01:23:56;;;;;;;1.10;1.10;;;21.50;76.20;;;;;;5075766;28;43451;-72
2023/08/06 01:26:27;;;;;;;0.90;0.90;;;21.50;76.20;;;;;;5082666;27;43852;-73
2023/08/06 01:29:00;;;;;;;0.87;0.87;;;21.40;76.10;;;;;;5078809;28;45016;-72
2023/08/06 01:31:30;;;;;;;0.93;0.93;;;21.30;76.30;;;;;;5080208;28;44001;-72
2023/08/06 01:33:59;;;;;;;1.10;1.10;;;21.20;76.90;;;;;;5077426;28;43741;-72
2023/08/06 01:36:28;;;;;;;1.10;1.10;;;21.20;76.90;;;;;;5081693;28;45742;-73
2023/08/06 01:38:57;;;;;;;1.07;1.07;;;21.20;76.90;;;;;;5077682;28;43441;-72
2023/08/06 01:41:26;;;;;;;0.90;0.90;;;21.20;77.00;;;;;;5080703;28;43434;-72
2023/08/06 01:43:54;;;;;;;0.90;0.90;;;21.10;77.30;;;;;;5078196;27;43930;-72
2023/08/06 01:46:21;;;;;;;1.00;1.00;;;21.10;77.40;;;;;;5078836;28;43614;-73
2023/08/06 01:48:51;;;;;;;0.80;0.80;;;21.10;77.40;;;;;;5082892;27;43403;-73
2023/08/06 01:51:19;;;;;;;1.00;1.00;;;21.10;77.30;;;;;;5076698;28;43505;-73
2023/08/06 01:53:48;;;;;;;1.00;1.00;;;21.10;77.40;;;;;;5081584;28;43405;-73
2023/08/06 01:56:16;;;;;;;0.90;0.90;;;21.00;77.70;;;;;;5084225;28;43761;-70
2023/08/06 01:58:44;;;;;;;1.10;1.10;;;21.00;77.70;;;;;;5079632;28;44754;-70
2023/08/06 02:01:15;;;;;;;0.90;0.90;;;21.10;77.50;;;;;;5078540;28;43441;-69
2023/08/06 02:03:43;;;;;;;0.90;0.90;;;21.20;77.00;;;;;;5077679;28;43674;-70
2023/08/06 02:06:11;;;;;;;0.87;0.87;;;21.40;76.50;;;;;;5078045;28;45954;-72
2023/08/06 02:08:40;;;;;;;0.90;0.90;;;21.50;76.30;;;;;;5083930;28;44616;-70
2023/08/06 02:11:09;;;;;;;0.80;0.80;;;21.40;76.10;;;;;;5079632;27;43421;-70
2023/08/06 02:13:37;;;;;;;0.70;0.70;;;21.40;76.10;;;;;;5077166;28;43707;-70
2023/08/06 02:16:08;;;;;;;0.80;0.80;;;21.30;76.30;;;;;;5078871;28;45656;-70
2023/08/06 02:18:36;;;;;;;1.00;1.00;;;21.20;76.80;;;;;;5083250;27;43465;-70
2023/08/06 02:21:04;;;;;;;0.83;0.83;;;21.20;76.90;;;;;;5074003;28;43486;-70
2023/08/06 02:23:32;;;;;;;0.83;0.83;;;21.20;76.90;;;;;;5078315;27;43398;-69
2023/08/06 02:26:01;;;;;;;0.80;0.80;;;21.20;76.90;;;;;;5082446;28;43617;-70
2023/08/06 02:28:30;;;;;;;1.00;1.00;;;21.10;77.00;;;;;;5078051;28;43436;-70
2023/08/06 02:30:58;;;;;;;1.00;1.00;;;21.10;77.60;;;;;;5079734;27;43422;-70
2023/08/06 02:33:26;;;;;;;0.90;0.90;;;21.10;77.60;;;;;;5075961;28;43528;-70
2023/08/06 02:36:03;;;;;;;0.97;0.97;;;21.00;77.40;;;;;;5075225;28;43599;-70
2023/08/06 02:38:31;;;;;;;1.10;1.10;;;21.00;77.30;;;;;;5068463;28;45028;-71
2023/08/06 02:40:59;;;;;;;0.80;0.80;;;21.00;77.70;;;;;;5075348;28;43548;-70
2023/08/06 02:43:27;;;;;;;1.03;1.03;;;21.00;77.80;;;;;;5074567;28;43496;-70
2023/08/06 02:45:59;;;;;;;0.90;0.90;;;21.10;77.50;;;;;;5074096;27;43897;-69
2023/08/06 02:48:27;;;;;;;1.00;1.00;;;21.20;77.10;;;;;;5077133;28;44985;-70
2023/08/06 02:50:58;;;;;;;1.03;1.03;;;21.30;76.40;;;;;;5084029;27;43406;-70
2023/08/06 02:53:27;;;;;;;1.00;1.00;;;21.40;76.20;;;;;;5073655;28;43434;-70
2023/08/06 02:55:55;;;;;;;0.97;0.97;;;21.40;76.20;;;;;;5071337;28;45847;-71
2023/08/06 02:58:31;;;;;;;0.70;0.70;;;21.30;76.20;;;;;;5081081;28;43806;-71
2023/08/06 03:01:29;;;;;;;1.00;1.00;;;21.30;76.50;;;;;;5070784;27;43440;-69
2023/08/06 03:04:05;;;;;;;0.90;0.90;;;21.20;76.90;;;;;;5081172;28;43561;-74
2023/08/06 03:06:39;;;;;;;0.80;0.80;;;21.20;77.10;;;;;;5069896;28;44999;-72
2023/08/06 03:09:07;;;;;;;0.90;0.90;;;21.10;76.90;;;;;;5078271;27;44793;-72
2023/08/06 03:11:35;;;;;;;0.90;0.90;;;21.10;77.00;;;;;;5075382;27;43386;-72
2023/08/06 03:14:08;;;;;;;0.90;0.90;;;21.00;77.40;;;;;;5080175;28;44564;-72
2023/08/06 03:16:38;;;;;;;1.00;1.00;;;21.00;77.60;;;;;;5084925;28;44057;-73
2023/08/06 03:19:07;;;;;;;0.80;0.80;;;21.10;77.30;;;;;;5077614;28;44880;-72
2023/08/06 03:21:35;;;;;;;0.70;0.70;;;21.20;76.90;;;;;;5079368;27;43424;-73
2023/08/06 03:24:04;;;;;;;0.80;0.80;;;21.20;76.70;;;;;;5083956;27;43975;-70
2023/08/06 03:26:34;;;;;;;0.80;0.80;;;21.20;76.60;;;;;;5080477;28;44044;-73
2023/08/06 03:29:03;;;;;;;0.73;0.73;;;21.20;76.90;;;;;;5084106;28;44752;-72
2023/08/06 03:31:34;;;;;;;0.70;0.70;;;21.20;77.00;;;;;;5080827;28;43444;-72
2023/08/06 03:34:05;;;;;;;0.60;0.60;;;21.20;76.90;;;;;;5085278;27;43536;-72
2023/08/06 03:36:33;;;;;;;0.83;0.83;;;21.10;76.80;;;;;;5082618;28;45956;-72
2023/08/06 03:39:02;;;;;;;0.70;0.70;;;21.10;77.00;;;;;;5082326;28;44781;-72
2023/08/06 03:41:32;;;;;;;0.97;0.97;;;21.00;77.40;;;;;;5086532;28;43448;-72
2023/08/06 03:44:02;;;;;;;0.80;0.80;;;21.10;77.40;;;;;;5085469;27;43890;-72
2023/08/06 03:46:32;;;;;;;1.00;1.00;;;21.00;77.20;;;;;;5082777;27;45639;-72
2023/08/06 03:49:01;;;;;;;0.77;0.77;;;21.00;77.20;;;;;;5085977;28;44698;-73
2023/08/06 03:51:30;;;;;;;0.90;0.90;;;21.00;77.40;;;;;;5081731;27;43457;-73
2023/08/06 03:53:58;;;;;;;1.50;0.70;;;21.00;77.80;;;;;;5083859;28;43597;-72
2023/08/06 03:56:26;;;;;;;0.77;0.77;;;21.10;77.70;;;;;;5085242;28;45971;-73
2023/08/06 03:58:54;;;;;;;0.80;0.80;;;21.20;77.20;;;;;;5087343;27;43392;-73
2023/08/06 04:01:22;;;;;;;0.70;0.70;;;21.30;76.60;;;;;;5083186;28;43492;-72
2023/08/06 04:03:50;;;;;;;0.90;0.90;;;21.40;76.20;;;;;;5077823;28;43417;-72
2023/08/06 04:06:18;;;;;;;0.80;0.80;;;21.40;76.00;;;;;;5070679;28;46425;-72
2023/08/06 04:08:47;;;;;;;0.77;0.77;;;21.40;76.10;;;;;;5081887;27;43450;-72
2023/08/06 04:11:15;;;;;;;0.90;0.90;;;21.30;76.30;;;;;;5083541;27;43451;-72
2023/08/06 04:13:44;;;;;;;0.90;0.90;;;21.20;76.70;;;;;;5087109;27;43482;-72
2023/08/06 04:16:14;;;;;;;0.80;0.80;;;21.20;77.00;;;;;;5084770;27;43887;-69
2023/08/06 04:18:42;;;;;;;0.80;0.80;;;21.20;77.00;;;;;;5076342;28;44324;-70
2023/08/06 04:21:10;;;;;;;0.80;0.80;;;21.10;76.80;;;;;;5077389;28;43990;-69
2023/08/06 04:23:38;;;;;;;0.70;0.70;;;21.10;77.00;;;;;;5086457;28;43442;-69
2023/08/06 04:26:09;;;;;;;0.80;0.80;;;21.00;77.90;;;;;;5083492;28;44810;-69
2023/08/06 04:28:38;;;;;;;0.90;0.77;;;21.00;77.50;;;;;;5082238;28;44856;-70
2023/08/06 04:31:06;;;;;;;0.80;0.80;;;21.00;77.40;;;;;;5078552;28;43890;-69
2023/08/06 04:33:35;;;;;;;0.80;0.80;;;21.00;77.30;;;;;;5077942;28;43540;-70
2023/08/06 04:36:09;;;;;;;0.80;0.80;;;21.00;77.40;;;;;;5077466;28;45766;-70
2023/08/06 04:38:38;;;;;;;0.80;0.80;;;21.00;77.90;;;;;;5082606;28;44628;-70
2023/08/06 04:41:06;;;;;;;0.77;0.77;;;21.00;77.80;;;;;;5080395;28;43409;-71
2023/08/06 04:43:37;;;;;;;0.60;0.60;;;21.10;77.50;;;;;;5074125;28;43546;-70
2023/08/06 04:46:06;;;;;;;0.60;0.60;;;21.20;77.00;;;;;;5074983;28;45732;-70
2023/08/06 04:48:34;;;;;;;0.90;0.90;;;21.30;76.50;;;;;;5072513;28;44764;-70
2023/08/06 04:51:02;;;;;;;0.73;0.73;;;21.40;76.30;;;;;;5082925;27;43423;-70
2023/08/06 04:53:30;;;;;;;0.57;0.57;;;21.40;76.20;;;;;;5083127;27;44028;-70
2023/08/06 04:55:58;;;;;;;0.70;0.70;;;21.30;76.20;;;;;;5083081;28;44651;-70
2023/08/06 04:58:26;;;;;;;0.70;0.70;;;21.20;76.50;;;;;;5080267;27;43426;-70
2023/08/06 05:00:55;;;;;;;0.80;0.80;;;21.20;77.10;;;;;;5078574;27;43922;-70
2023/08/06 05:03:23;;;;;;;0.70;0.70;;;21.20;77.20;;;;;;5086748;27;43527;-70
2023/08/06 05:05:51;;;;;;;0.70;0.70;;;21.10;77.00;;;;;;5074441;27;43811;-70
2023/08/06 05:08:19;;;;;;;1.13;0.80;;;21.10;77.80;;;;;;5087345;27;43359;-70
2023/08/06 05:10:47;;;;;;;0.63;0.63;;;21.00;77.20;;;;;;5086790;28;43338;-68
2023/08/06 05:13:15;;;;;;;0.70;0.70;;;21.00;77.60;;;;;;5082981;27;43362;-70
2023/08/06 05:15:45;;;;;;;0.70;0.70;;;21.10;77.60;;;;;;5083113;27;43599;-70
2023/08/06 05:18:15;;;;;;;0.67;0.67;;;21.20;77.10;;;;;;5086088;27;43419;-70
2023/08/06 05:20:43;;;;;;;0.70;0.70;;;21.20;76.80;;;;;;5080436;28;43374;-70
2023/08/06 05:23:11;;;;;;;0.70;0.70;;;21.20;76.90;;;;;;5085154;27;43418;-70
2023/08/06 05:25:39;;;;;;;0.80;0.80;;;21.20;76.90;;;;;;5083299;27;45416;-70
2023/08/06 05:28:07;;;;;;;0.70;0.70;;;21.20;77.00;;;;;;5080455;28;44375;-70
2023/08/06 05:30:37;;;;;;;0.80;0.80;;;21.20;76.90;;;;;;5082838;27;43390;-70
2023/08/06 05:33:05;;;;;;;0.60;0.60;;;21.20;76.90;;;;;;5082770;27;43356;-70
2023/08/06 05:35:34;;;;;;;0.70;0.70;;;21.10;76.90;;;;;;5076783;27;43851;-70
2023/08/06 05:38:02;;;;;;;0.80;0.80;;;21.10;77.40;;;;;;5079246;27;43304;-70
2023/08/06 05:40:30;;;;;;;0.70;0.70;;;21.00;77.50;;;;;;5079514;27;43391;-70
2023/08/06 05:42:58;;;;;;;0.70;0.70;;;21.10;77.50;;;;;;5081534;28;43450;-70
2023/08/06 05:45:26;;;;;;;0.60;0.60;;;21.00;77.30;;;;;;5081793;27;43876;-69
2023/08/06 05:47:57;;;;;;;0.60;0.60;;;21.00;77.40;;;;;;5086891;27;43869;-70
2023/08/06 05:50:26;;;;;;;0.60;0.60;;;20.90;77.80;;;;;;5081075;27;43461;-70
2023/08/06 05:53:04;;;;;;;0.70;0.70;;;21.00;77.90;;;;;;5080811;27;43448;-70
2023/08/06 05:55:32;;;;;;;0.67;0.67;;;21.00;77.40;;;;;;5083544;27;43623;-71
2023/08/06 05:58:03;;;;;;;0.70;0.70;;;21.20;77.00;;;;;;5082138;28;43379;-69
2023/08/06 06:00:31;;;;;;;0.80;0.80;;;21.30;76.40;;;;;;5079450;28;43346;-70
2023/08/06 06:02:59;;;;;;;0.70;0.70;;;21.40;76.40;;;;;;5080948;28;43445;-69
2023/08/06 06:05:27;;;;;;;0.50;0.50;;;21.30;76.20;;;;;;5079219;28;45790;-70
2023/08/06 06:07:58;;;;;;;0.70;0.70;;;21.30;76.40;;;;;;5083499;27;43560;-70
2023/08/06 06:10:28;;;;;;;0.70;0.70;;;21.20;76.70;;;;;;5078946;27;43429;-69
2023/08/06 06:12:56;;;;;;;0.40;0.40;;;21.10;77.00;;;;;;5074837;28;43545;-70
2023/08/06 06:15:27;;;;;;;0.60;0.60;;;21.10;77.10;;;;;;5081496;28;43655;-70
2023/08/06 06:17:55;;;;;;;0.70;0.70;;;21.10;77.00;;;;;;5080067;28;44354;-70
2023/08/06 06:20:23;;;;;;;0.80;0.80;;;21.00;77.10;;;;;;5079050;27;44060;-70
2023/08/06 06:22:51;;;;;;;0.60;0.60;;;21.00;77.60;;;;;;5084595;28;43414;-70
2023/08/06 06:25:19;;;;;;;0.70;0.70;;;21.00;77.60;;;;;;5075149;27;43919;-70
2023/08/06 06:27:48;;;;;;;0.50;0.50;;;21.00;77.50;;;;;;5082663;28;43884;-69
2023/08/06 06:30:16;;;;;;;0.60;0.60;;;21.00;77.40;;;;;;5079137;27;43343;-69
2023/08/06 06:32:44;;;;;;;0.70;0.70;;;20.90;77.40;;;;;;5085468;28;43419;-69
2023/08/06 06:35:13;;;;;;;0.60;0.60;;;20.90;77.90;;;;;;5069550;28;43840;-72
2023/08/06 06:37:41;;;;;;;0.40;0.40;;;20.90;77.90;;;;;;5081351;28;43394;-73
2023/08/06 06:40:10;;;;;;;0.50;0.50;;;21.00;77.50;;;;;;5081326;28;43387;-72
2023/08/06 06:42:38;;;;;;;0.67;0.67;;;21.20;77.10;;;;;;5080286;28;43422;-73
2023/08/06 06:45:10;;;;;;;0.70;0.70;;;21.30;76.40;;;;;;5082722;28;44047;-72
2023/08/06 06:47:38;;;;;;;0.60;0.60;;;21.30;76.10;;;;;;5070897;28;43693;-72
2023/08/06 06:50:07;;;;;;;0.57;0.57;;;21.30;76.10;;;;;;5078915;28;43436;-72
2023/08/06 06:52:35;;;;;;;0.70;0.70;;;21.20;76.20;;;;;;5081294;28;44036;-73
2023/08/06 06:55:03;;;;;;;0.70;0.70;;;21.20;76.60;;;;;;5082672;27;43598;-73
2023/08/06 06:57:31;;;;;;;0.70;0.70;;;21.10;75.70;;;;;;5087017;28;43367;-73
2023/08/06 06:59:59;;;;;;;0.70;0.70;;;21.10;76.20;;;;;;5081195;27;43438;-74
2023/08/06 07:02:29;;;;;;;0.80;0.80;;;21.00;76.40;;;;;;5081606;27;43539;-74
2023/08/06 07:04:57;;;;;;;0.50;0.50;;;21.00;76.60;;;;;;5074546;28;43926;-73
2023/08/06 07:07:25;;;;;;;0.50;0.50;;;21.00;76.90;;;;;;5074733;28;43938;-74
2023/08/06 07:09:53;;;;;;;0.63;0.63;;;20.90;77.20;;;;;;5083247;28;43292;-73
2023/08/06 07:12:21;;;;;;;0.67;0.67;;;21.00;77.00;;;;;;5085058;28;43539;-74
2023/08/06 07:14:49;;;;;;;0.53;0.53;;;21.10;76.70;;;;;;5077367;28;43782;-74
2023/08/06 07:17:17;;;;;;;0.80;0.80;;;21.20;76.50;;;;;;5086556;28;43442;-74
2023/08/06 07:19:47;;;;;;;0.70;0.70;;;21.20;76.50;;;;;;5082792;27;43426;-74
2023/08/06 07:22:15;;;;;;;2.73;0.70;;;21.10;76.70;;;;;;5075237;28;43902;-73
2023/08/06 07:24:43;;;;;;;0.80;0.80;;;21.10;76.70;;;;;;5067471;28;43611;-73
2023/08/06 07:27:11;;;;;;;0.90;0.60;;;21.10;76.70;;;;;;5073591;28;44061;-73
2023/08/06 07:29:39;;;;;;;1.70;0.70;;;21.10;76.70;;;;;;5078371;27;43434;-73
2023/08/06 07:32:08;;;;;;;1.27;0.70;;;21.00;76.70;;;;;;5079608;27;43443;-73
2023/08/06 07:34:36;;;;;;;0.70;0.70;;;21.00;77.20;;;;;;5077692;28;43825;-73
2023/08/06 07:37:06;;;;;;;3.50;0.90;;;21.00;77.20;;;;;;5076160;28;43985;-73
2023/08/06 07:39:34;;;;;;;0.60;0.60;;;21.10;77.10;;;;;;5075112;27;43435;-74
2023/08/06 07:42:05;;;;;;;2.10;1.30;;;21.10;75.20;;;;;;5080606;28;43971;-73
2023/08/06 07:44:33;;;;;;;0.90;0.90;;;21.10;75.60;;;;;;5075894;28;45689;-73
2023/08/06 07:47:01;;;;;;;4.83;1.20;;;21.10;76.10;;;;;;5084679;27;43479;-72
2023/08/06 07:49:29;;;;;;;1.40;1.10;;;21.00;76.50;;;;;;5078954;27;43477;-72
2023/08/06 07:51:57;;;;;;;1.03;1.03;;;21.10;76.60;;;;;;5087634;27;43355;-72
2023/08/06 07:54:28;;;;;;;1.23;0.80;;;21.00;76.50;;;;;;5088434;27;44805;-72
2023/08/06 07:56:56;;;;;;;0.90;0.90;;;21.00;76.50;;;;;;5071976;28;43375;-72
2023/08/06 07:59:24;;;;;;;1.00;1.00;;;21.00;76.70;;;;;;5072204;28;43511;-73
2023/08/06 08:01:52;;;;;;;0.97;0.97;;;20.90;77.20;;;;;;5083144;28;43455;-74
2023/08/06 08:04:21;;;;;;;1.10;1.10;;;20.90;77.20;;;;;;5065555;28;43960;-72
2023/08/06 08:06:50;;;;;;;1.57;1.00;;;20.90;77.10;;;;;;5076643;28;43424;-73
2023/08/06 08:09:18;;;;;;;2.63;0.90;;;20.90;77.10;;;;;;5077845;28;43527;-73
2023/08/06 08:11:47;;;;;;;0.90;0.90;;;20.90;77.20;;;;;;5081238;27;43477;-73
2023/08/06 08:14:15;;;;;;;1.53;1.10;;;20.90;77.90;;;;;;5084676;28;45816;-72
2023/08/06 08:16:44;;;;;;;1.30;1.13;;;20.90;77.80;;;;;;5078745;27;43530;-72
2023/08/06 08:19:12;;;;;;;1.57;1.00;;;21.00;77.50;;;;;;5073265;28;43480;-73
2023/08/06 08:21:40;;;;;;;1.33;1.23;;;21.20;77.20;;;;;;5086979;27;43858;-72
2023/08/06 08:24:08;;;;;;;2.33;1.13;;;21.30;76.60;;;;;;5077124;28;43855;-73
2023/08/06 08:26:36;;;;;;;1.67;1.03;;;21.40;76.30;;;;;;5083308;27;43529;-72
2023/08/06 08:29:06;;;;;;;2.53;1.10;;;21.40;76.10;;;;;;5071942;28;43497;-73
2023/08/06 08:31:38;;;;;;;0.80;0.80;;;21.30;76.20;;;;;;5078544;28;43443;-72
2023/08/06 08:34:06;;;;;;;1.00;1.00;;;21.20;76.40;;;;;;5077239;28;43689;-72
2023/08/06 08:36:34;;;;;;;0.90;0.90;;;21.20;77.10;;;;;;5079021;28;44710;-73
2023/08/06 08:39:06;;;;;;;1.10;1.10;;;21.10;77.10;;;;;;5083571;28;43374;-72
2023/08/06 08:41:37;;;;;;;0.90;0.90;;;21.10;77.10;;;;;;5072078;28;43878;-73
2023/08/06 08:44:09;;;;;;;1.10;1.10;;;21.10;77.20;;;;;;5079376;27;43810;-72
2023/08/06 08:46:38;;;;;;;0.90;0.90;;;21.00;77.30;;;;;;5074807;28;43439;-72
2023/08/06 08:49:13;;;;;;;0.93;0.93;;;21.00;77.80;;;;;;5076457;28;43357;-71
2023/08/06 08:51:41;;;;;;;1.10;1.10;;;21.00;77.80;;;;;;5076973;27;43394;-73
2023/08/06 08:54:13;;;;;;;0.90;0.90;;;20.90;77.60;;;;;;5079988;27;44019;-74
2023/08/06 08:56:44;;;;;;;1.57;1.00;;;20.90;77.60;;;;;;5079692;28;43799;-74
2023/08/06 08:59:14;;;;;;;0.83;0.83;;;20.90;77.90;;;;;;5084915;28;43407;-74
2023/08/06 09:01:50;;;;;;;1.00;1.00;;;20.90;78.20;;;;;;5072588;28;43480;-74
2023/08/06 09:04:20;;;;;;;1.23;1.00;;;21.00;78.00;;;;;;5076654;28;43852;-74
2023/08/06 09:06:50;;;;;;;1.17;1.17;;;21.20;77.70;;;;;;5074948;28;43327;-74
2023/08/06 09:09:21;;;;;;;1.37;0.90;;;21.30;77.10;;;;;;5083762;28;43443;-74
2023/08/06 09:11:49;;;;;;;1.20;1.20;;;21.30;76.70;;;;;;5076195;28;43391;-74
2023/08/06 09:14:18;;;;;;;1.17;1.03;;;21.30;76.50;;;;;;5065289;28;43615;-72
2023/08/06 09:16:46;;;;;;;1.10;1.10;;;21.20;76.60;;;;;;5074787;28;44173;-73
2023/08/06 09:19:15;;;;;;;1.10;1.10;;;21.20;76.90;;;;;;5072913;28;44075;-73
2023/08/06 09:21:43;;;;;;;1.07;0.90;;;21.10;77.40;;;;;;5078435;28;43480;-73
2023/08/06 09:24:12;;;;;;;0.90;0.90;;;21.10;77.40;;;;;;5065142;28;45778;-73
2023/08/06 09:26:41;;;;;;;0.87;0.87;;;21.10;77.40;;;;;;5075822;28;45123;-73
2023/08/06 09:29:12;;;;;;;2.83;1.00;;;21.00;77.40;;;;;;5075754;27;43490;-73
2023/08/06 09:31:45;;;;;;;1.00;1.00;;;21.00;77.50;;;;;;5073521;28;43568;-73
2023/08/06 09:34:16;;;;;;;1.00;1.00;;;21.00;78.10;;;;;;5078193;28;43607;-72
2023/08/06 09:36:48;;;;;;;1.10;1.10;;;21.00;78.70;;;;;;5080556;27;43517;-72
2023/08/06 09:39:16;;;;;;;1.20;1.20;;;21.20;77.70;;;;;;5076543;28;43803;-73
2023/08/06 09:41:44;;;;;;;1.77;1.10;;;21.20;77.40;;;;;;5080744;27;44590;-72
2023/08/06 09:44:18;;;;;;;2.07;1.47;;;21.20;77.20;;;;;;5070720;27;43704;-72
2023/08/06 09:46:51;;;;;;;1.10;1.10;;;21.10;77.50;;;;;;5079654;28;43944;-72
2023/08/06 09:49:19;;;;;;;1.40;1.40;;;21.10;77.60;;;;;;5080466;28;43417;-72
2023/08/06 09:51:53;;;;;;;1.20;1.20;;;21.10;77.40;;;;;;5074580;27;44086;-72
2023/08/06 09:54:21;;;;;;;1.00;1.00;;;21.10;77.40;;;;;;5068135;28;46210;-72
2023/08/06 09:56:55;;;;;;;1.10;1.10;;;21.10;77.60;;;;;;5068245;28;43490;-72
2023/08/06 09:59:23;;;;;;;1.50;1.40;;;21.00;77.90;;;;;;5086359;28;43437;-72
2023/08/06 10:01:56;;;;;;;1.60;1.50;;;21.00;78.00;;;;;;5083735;28;43600;-72
2023/08/06 10:04:25;;;;;;;2.10;1.30;;;20.90;77.70;;;;;;5073882;28;44477;-70
2023/08/06 10:07:02;;;;;;;1.50;1.40;;;21.00;77.80;;;;;;5066311;28;44372;-69
2023/08/06 10:09:29;;;;;;;1.17;1.17;;;20.90;77.90;;;;;;5083687;28;43418;-70
2023/08/06 10:11:57;;;;;;;1.80;1.70;;;20.90;78.30;;;;;;5069532;28;43382;-71
2023/08/06 10:14:27;;;;;;;1.67;1.57;;;20.90;78.10;;;;;;5082927;28;45675;-70
2023/08/06 10:16:57;;;;;;;1.80;1.70;;;21.10;77.90;;;;;;5081362;28;44808;-71
2023/08/06 10:19:25;;;;;;;4.00;1.87;;;21.20;77.30;;;;;;5071493;28;43350;-70
2023/08/06 10:22:12;;;;;;;2.07;1.97;;;21.30;76.50;;;;;;5081156;27;43339;-71
2023/08/06 10:24:53;;;;;;;1.97;1.80;;;21.30;76.40;;;;;;5077700;28;45113;-72
2023/08/06 10:27:22;;;;;;;1.80;1.70;;;21.30;76.50;;;;;;5076739;28;43445;-72
2023/08/06 10:29:52;;;;;;;2.03;1.67;;;21.20;76.70;;;;;;5080709;28;43474;-73
2023/08/06 10:32:42;;;;;;;2.10;1.90;;;21.10;77.20;;;;;;5073632;28;43450;-72
2023/08/06 10:35:29;;;;;;;2.90;2.00;;;21.10;77.40;;;;;;5068222;28;43616;-73
2023/08/06 10:37:59;;;;;;;1.90;1.80;;;21.10;77.40;;;;;;5070648;28;44418;-73
2023/08/06 10:40:31;;;;;;;2.00;1.90;;;21.10;77.50;;;;;;5070555;28;43403;-73
2023/08/06 10:43:00;;;;;;;2.20;2.00;;;21.00;77.50;;;;;;5081338;28;43573;-73
2023/08/06 10:45:30;;;;;;;2.20;2.10;;;21.00;78.10;;;;;;5069220;28;46065;-73
2023/08/06 10:47:59;;;;;;;2.90;1.87;;;21.00;78.00;;;;;;5075974;28;43485;-73
2023/08/06 10:50:28;;;;;;;1.87;1.73;;;21.00;77.80;;;;;;5076064;28;43961;-73
2023/08/06 10:52:56;;;;;;;2.03;1.93;;;20.90;77.80;;;;;;5072434;28;43452;-73
2023/08/06 10:55:25;;;;;;;2.30;2.10;;;20.90;77.90;;;;;;5078330;27;44805;-73
2023/08/06 10:57:53;;;;;;;2.30;2.20;;;20.90;78.40;;;;;;5068097;28;43476;-72
2023/08/06 11:00:22;;;;;;;2.50;2.30;;;20.90;78.20;;;;;;5072320;28;43464;-73
2023/08/06 11:02:50;;;;;;;2.50;2.17;;;21.00;77.80;;;;;;5086204;28;43483;-73
2023/08/06 11:05:19;;;;;;;2.10;2.00;;;21.20;77.40;;;;;;5081099;27;44038;-73
2023/08/06 11:07:49;;;;;;;2.33;2.13;;;21.30;76.90;;;;;;5077875;27;43459;-73
2023/08/06 11:10:17;;;;;;;2.23;2.10;;;21.30;76.60;;;;;;5078647;27;43317;-72
2023/08/06 11:12:45;;;;;;;2.30;2.10;;;21.30;76.60;;;;;;5084473;27;43428;-72
2023/08/06 11:15:13;;;;;;;2.10;2.00;;;21.20;76.80;;;;;;5073002;28;45484;-70
2023/08/06 11:17:42;;;;;;;2.07;1.97;;;21.20;77.10;;;;;;5070883;28;43393;-69
2023/08/06 11:20:10;;;;;;;1.90;1.80;;;21.10;77.50;;;;;;5086036;27;43444;-70
2023/08/06 11:22:40;;;;;;;2.30;2.10;;;21.10;77.50;;;;;;5075120;28;44054;-70
2023/08/06 11:25:08;;;;;;;2.13;1.90;;;21.10;77.50;;;;;;5084390;27;43630;-69
2023/08/06 11:27:36;;;;;;;2.57;2.33;;;21.00;77.50;;;;;;5080360;27;43911;-70
2023/08/06 11:30:06;;;;;;;2.30;2.10;;;21.00;77.60;;;;;;5078903;27;43427;-70
2023/08/06 11:32:35;;;;;;;2.50;2.30;;;20.90;78.10;;;;;;5084047;27;43921;-70
2023/08/06 11:35:11;;;;;;;2.20;2.03;;;20.90;77.90;;;;;;5063244;28;46284;-72
2023/08/06 11:37:41;;;;;;;2.00;1.90;;;21.00;77.80;;;;;;5082138;27;44424;-72
2023/08/06 11:40:11;;;;;;;2.40;2.30;;;20.90;77.80;;;;;;5086459;27;43964;-72
2023/08/06 11:42:39;;;;;;;1.90;1.80;;;20.90;78.10;;;;;;5081624;28;43625;-73
2023/08/06 11:45:09;;;;;;;2.53;2.33;;;20.90;78.30;;;;;;5081279;27;43945;-72
2023/08/06 11:47:39;;;;;;;2.23;2.10;;;21.00;78.00;;;;;;5082831;28;43439;-72
2023/08/06 11:50:07;;;;;;;2.10;2.00;;;21.10;77.60;;;;;;5071882;28;43969;-73
2023/08/06 11:52:35;;;;;;;2.40;2.20;;;21.20;77.00;;;;;;5086561;27;43408;-72
2023/08/06 11:55:08;;;;;;;2.53;2.30;;;21.30;76.60;;;;;;5082671;27;43592;-72
2023/08/06 11:57:36;;;;;;;1.93;1.83;;;21.40;76.50;;;;;;5081440;28;43651;-72
2023/08/06 12:00:05;;;;;;;1.93;1.83;;;21.30;76.40;;;;;;5080960;27;43511;-72
2023/08/06 12:02:41;;;;;;;2.30;2.20;;;21.20;76.60;;;;;;5078742;27;43540;-72
2023/08/06 12:05:13;;;;;;;2.50;2.30;;;21.10;77.10;;;;;;5083203;28;43953;-72
2023/08/06 12:07:42;;;;;;;2.67;2.10;;;21.10;77.40;;;;;;5089048;28;43449;-72
2023/08/06 12:10:12;;;;;;;2.27;2.07;;;21.10;77.30;;;;;;5085581;27;43305;-73
2023/08/06 12:12:40;;;;;;;2.20;2.10;;;21.10;77.30;;;;;;5072443;28;43430;-73
2023/08/06 12:15:09;;;;;;;1.93;1.83;;;21.00;78.10;;;;;;5080862;28;43603;-72
2023/08/06 12:17:37;;;;;;;2.03;1.93;;;20.90;77.80;;;;;;5081695;27;43499;-73
2023/08/06 12:20:06;;;;;;;2.40;2.20;;;21.00;77.90;;;;;;5087547;27;43439;-72
2023/08/06 12:22:35;;;;;;;2.20;2.00;;;20.90;77.70;;;;;;5088949;27;43403;-72
2023/08/06 12:25:04;;;;;;;2.10;2.00;;;20.90;77.80;;;;;;5078037;28;43894;-70
2023/08/06 12:27:33;;;;;;;2.10;2.00;;;20.90;77.80;;;;;;5085032;27;43943;-69
2023/08/06 12:30:01;;;;;;;2.60;2.40;;;20.90;78.30;;;;;;5085081;27;43343;-70
2023/08/06 12:32:29;;;;;;;2.43;2.23;;;20.90;78.30;;;;;;5078397;27;43419;-70
2023/08/06 12:34:57;;;;;;;2.00;1.90;;;20.90;78.10;;;;;;5075824;27;43850;-69
2023/08/06 12:37:25;;;;;;;2.20;2.10;;;20.90;78.00;;;;;;5086789;28;44705;-69
2023/08/06 12:39:53;;;;;;;2.00;1.90;;;20.90;78.10;;;;;;5078426;27;43455;-69
2023/08/06 12:42:21;;;;;;;1.73;1.63;;;20.90;78.50;;;;;;5075740;27;43627;-69
2023/08/06 12:44:51;;;;;;;2.00;1.90;;;20.90;78.50;;;;;;5084534;27;43761;-74
2023/08/06 12:47:19;;;;;;;2.20;2.10;;;21.00;78.00;;;;;;5078670;28;44985;-74
2023/08/06 12:49:47;;;;;;;2.07;1.97;;;21.20;77.70;;;;;;5078168;27;43844;-74
2023/08/06 12:52:16;;;;;;;2.23;2.03;;;21.30;77.20;;;;;;5085066;27;43388;-74
2023/08/06 12:54:45;;;;;;;2.50;2.30;;;21.30;76.60;;;;;;5081003;27;43591;-74
2023/08/06 12:57:14;;;;;;;2.73;2.17;;;21.40;76.60;;;;;;5084583;27;43409;-73
2023/08/06 12:59:42;;;;;;;1.70;1.60;;;21.30;76.60;;;;;;5083303;27;43529;-74